createdAt,value
2023-02-11T00:27:00.446Z,61.10
2023-02-11T00:29:58.147Z,60.60
2023-02-11T00:32:55.944Z,60.40
2023-02-11T00:35:53.602Z,59.60
2023-02-11T00:38:52.669Z,59.90
2023-02-11T00:41:51.287Z,60.00
2023-02-11T00:44:49.233Z,59.80
2023-02-11T00:47:47.014Z,60.10
2023-02-11T00:50:45.142Z,60.80
2023-02-11T00:53:42.875Z,60.00
2023-02-11T00:56:40.693Z,60.00
2023-02-11T00:59:38.585Z,61.40
2023-02-11T01:02:36.543Z,60.90
2023-02-11T01:05:34.475Z,60.80
2023-02-11T01:08:32.300Z,60.80
2023-02-11T01:11:30.045Z,61.20
2023-02-11T01:14:27.829Z,61.30
2023-02-11T01:17:25.482Z,63.00
2023-02-11T01:20:26.272Z,62.30
2023-02-11T01:23:24.169Z,62.20
2023-02-11T01:26:21.986Z,62.20
2023-02-11T01:29:19.652Z,62.00
2023-02-11T01:32:17.681Z,61.10
2023-02-11T01:35:15.782Z,60.90
2023-02-11T01:38:19.446Z,59.90
2023-02-11T01:41:17.687Z,59.70
2023-02-11T01:44:33.660Z,60.70
2023-02-11T01:47:31.713Z,60.10
2023-02-11T01:50:29.657Z,59.90
2023-02-11T01:53:43.496Z,60.70
2023-02-11T01:57:02.261Z,59.80
2023-02-11T02:00:13.340Z,60.80
2023-02-11T02:03:16.479Z,62.00
2023-02-11T02:06:25.360Z,60.80
2023-02-11T02:09:26.665Z,60.60
2023-02-11T02:12:24.412Z,61.10
2023-02-11T02:15:27.200Z,60.80
2023-02-11T02:18:41.472Z,59.50
2023-02-11T02:22:10.976Z,60.20
2023-02-11T02:25:35.557Z,60.50
2023-02-11T02:29:02.239Z,59.30
2023-02-11T02:32:30.534Z,58.10
2023-02-11T02:35:45.684Z,59.90
2023-02-11T02:38:51.530Z,61.90
2023-02-11T02:41:51.500Z,63.00
2023-02-11T02:44:50.963Z,63.60
2023-02-11T02:47:48.742Z,63.60
2023-02-11T02:50:47.245Z,63.70
2023-02-11T02:54:01.284Z,62.90
2023-02-11T02:57:13.212Z,61.80
2023-02-11T03:00:33.668Z,61.40
2023-02-11T03:04:06.217Z,61.00
2023-02-11T03:07:26.932Z,61.90
2023-02-11T03:10:32.519Z,62.30
2023-02-11T03:13:34.562Z,62.40
2023-02-11T03:16:39.243Z,61.70
2023-02-11T03:19:44.432Z,62.20
2023-02-11T03:22:48.502Z,61.30
2023-02-11T03:25:53.772Z,53.10
2023-02-11T03:29:11.230Z,53.10
2023-02-11T03:32:28.698Z,57.30
2023-02-11T03:35:35.984Z,58.00
2023-02-11T03:38:38.199Z,56.90
2023-02-11T03:41:37.139Z,57.10
2023-02-11T03:44:42.035Z,55.70
2023-02-11T03:47:44.109Z,52.70
2023-02-11T03:50:42.963Z,51.20
2023-02-11T03:53:43.978Z,49.40
2023-02-11T03:56:51.766Z,49.80
2023-02-11T03:59:52.333Z,50.40
2023-02-11T04:02:50.118Z,50.20
2023-02-11T04:05:48.700Z,49.00
2023-02-11T04:08:46.692Z,47.70
2023-02-11T04:11:44.346Z,47.50
2023-02-11T04:14:42.245Z,48.40
2023-02-11T04:17:39.937Z,48.50
2023-02-11T04:20:37.737Z,48.70
2023-02-11T04:23:35.599Z,48.50
2023-02-11T04:26:33.896Z,48.70
2023-02-11T04:29:32.448Z,47.20
2023-02-11T04:32:30.250Z,45.60
2023-02-11T04:35:28.305Z,44.30
2023-02-11T04:38:26.077Z,44.30
2023-02-11T04:41:23.711Z,44.30
2023-02-11T04:44:21.463Z,44.70
2023-02-11T04:47:19.179Z,44.70
2023-02-11T04:50:17.001Z,44.60
2023-02-11T04:53:14.658Z,43.30
2023-02-11T04:56:12.376Z,44.40
2023-02-11T04:59:10.283Z,44.40
2023-02-11T05:02:08.119Z,44.40
2023-02-11T05:05:06.539Z,44.80
2023-02-11T05:08:04.444Z,45.10
2023-02-11T05:11:02.652Z,44.90
2023-02-11T05:14:00.637Z,45.50
2023-02-11T05:16:58.387Z,45.30
2023-02-11T05:19:56.224Z,45.00
2023-02-11T05:22:53.923Z,44.90
2023-02-11T05:25:51.949Z,45.20
2023-02-11T05:28:49.824Z,44.60
2023-02-11T05:31:47.543Z,45.20
2023-02-11T05:34:45.354Z,44.80
2023-02-11T05:37:43.238Z,47.60
2023-02-11T05:40:41.367Z,49.00
2023-02-11T05:43:39.325Z,49.80
2023-02-11T05:46:37.275Z,47.70
2023-02-11T05:49:35.558Z,46.40
2023-02-11T05:52:33.220Z,46.60
2023-02-11T05:55:31.286Z,47.80
2023-02-11T05:58:29.142Z,47.60
2023-02-11T06:01:27.655Z,48.30
2023-02-11T06:04:25.365Z,49.20
2023-02-11T06:07:23.108Z,49.10
2023-02-11T06:10:20.873Z,48.60
2023-02-11T06:13:20.197Z,49.40
2023-02-11T06:16:18.021Z,49.20
2023-02-11T06:19:15.911Z,48.90
2023-02-11T06:22:13.546Z,48.70
2023-02-11T06:25:11.909Z,48.90
2023-02-11T06:28:11.030Z,47.90
2023-02-11T06:31:10.259Z,47.50
2023-02-11T06:34:09.739Z,46.80
2023-02-11T06:37:07.667Z,47.30
2023-02-11T06:40:05.923Z,47.40
2023-02-11T06:43:03.868Z,48.00
2023-02-11T06:46:01.537Z,47.40
2023-02-11T06:48:59.541Z,49.60
2023-02-11T06:51:57.182Z,48.00
2023-02-11T06:54:54.919Z,49.00
2023-02-11T06:57:52.632Z,49.00
2023-02-11T07:00:50.510Z,48.10
2023-02-11T07:03:48.311Z,47.90
2023-02-11T07:06:46.182Z,46.70
2023-02-11T07:09:43.946Z,47.70
2023-02-11T07:12:42.023Z,47.20
2023-02-11T07:15:39.646Z,46.50
2023-02-11T07:18:37.787Z,46.70
2023-02-11T07:21:35.559Z,46.30
2023-02-11T07:24:33.450Z,48.00
2023-02-11T07:27:31.120Z,45.40
2023-02-11T07:30:28.946Z,46.00
2023-02-11T07:33:26.558Z,46.20
2023-02-11T07:36:24.378Z,45.30
2023-02-11T07:39:22.967Z,47.50
2023-02-11T07:42:20.744Z,46.50
2023-02-11T07:45:18.518Z,46.30
2023-02-11T07:48:16.223Z,48.50
2023-02-11T07:51:17.079Z,49.20
2023-02-11T07:54:14.809Z,50.60
2023-02-11T07:57:12.642Z,50.40
2023-02-11T08:03:32.827Z,51.30
2023-02-11T08:06:33.354Z,49.80
2023-02-11T08:09:34.134Z,51.50
2023-02-11T08:12:32.245Z,51.00
2023-02-11T08:15:29.929Z,52.20
2023-02-11T08:18:27.780Z,52.10
2023-02-11T08:21:26.325Z,51.70
2023-02-11T08:24:24.363Z,51.30
2023-02-11T08:27:22.001Z,52.30
2023-02-11T08:30:19.942Z,52.80
2023-02-11T08:33:17.635Z,52.90
2023-02-11T08:36:18.584Z,51.60
2023-02-11T08:39:20.818Z,50.20
2023-02-11T08:42:19.011Z,50.40
2023-02-11T08:45:16.676Z,49.80
2023-02-11T08:48:14.440Z,48.70
2023-02-11T08:51:17.121Z,45.70
2023-02-11T08:54:15.452Z,46.90
2023-02-11T08:57:13.233Z,48.50
2023-02-11T09:00:11.645Z,47.40
2023-02-11T09:03:09.278Z,47.50
2023-02-11T09:06:08.642Z,44.80
2023-02-11T09:09:06.767Z,43.20
2023-02-11T09:12:04.793Z,40.10
2023-02-11T09:15:02.602Z,44.80
2023-02-11T09:18:00.642Z,40.70
2023-02-11T09:21:07.846Z,43.40
2023-02-11T09:24:07.155Z,45.90
2023-02-11T09:27:06.108Z,48.20
2023-02-11T09:30:04.519Z,45.50
2023-02-11T09:33:02.270Z,45.40
2023-02-11T09:36:04.745Z,44.70
2023-02-11T09:39:04.516Z,43.30
2023-02-11T09:42:26.672Z,42.10
2023-02-11T09:45:27.922Z,41.90
2023-02-11T09:48:25.752Z,42.50
2023-02-11T09:51:42.600Z,39.50
2023-02-11T09:55:01.647Z,40.20
2023-02-11T09:57:59.568Z,36.70
2023-02-11T10:01:22.392Z,35.10
2023-02-11T10:04:42.795Z,36.10
2023-02-11T10:07:52.607Z,36.00
2023-02-11T10:10:54.501Z,33.30
2023-02-11T10:14:12.078Z,30.30
2023-02-11T10:17:26.152Z,30.60
2023-02-11T10:20:37.875Z,29.90
2023-02-11T10:23:39.324Z,32.40
2023-02-11T10:26:39.012Z,33.30
2023-02-11T10:29:41.098Z,39.40
2023-02-11T10:32:46.433Z,44.20
2023-02-11T10:35:44.446Z,49.20
2023-02-11T10:38:42.362Z,51.30
2023-02-11T10:41:44.847Z,53.40
2023-02-11T10:45:00.302Z,53.10
2023-02-11T10:47:59.809Z,51.60
2023-02-11T10:51:17.325Z,50.30
2023-02-11T10:54:21.674Z,48.80
2023-02-11T10:57:20.620Z,49.40
2023-02-11T11:00:39.354Z,49.00
2023-02-11T11:03:46.247Z,51.50
2023-02-11T11:06:43.962Z,50.90
2023-02-11T11:09:52.555Z,52.10
2023-02-11T11:12:50.304Z,51.10
2023-02-11T11:16:06.949Z,51.60
2023-02-11T11:19:21.764Z,50.90
2023-02-11T11:22:23.243Z,53.70
2023-02-11T11:25:25.317Z,53.20
2023-02-11T11:28:26.932Z,53.00
2023-02-11T11:31:30.664Z,51.80
2023-02-11T11:34:32.505Z,52.80
2023-02-11T11:37:33.084Z,52.90
2023-02-11T11:40:32.750Z,53.40
2023-02-11T11:43:30.615Z,54.00
2023-02-11T11:46:33.062Z,56.30
2023-02-11T11:49:36.368Z,56.10
2023-02-11T11:52:52.684Z,56.40
2023-02-11T11:56:01.059Z,55.90
2023-02-11T11:59:07.122Z,56.20
2023-02-11T12:02:38.616Z,56.90
2023-02-11T12:05:47.707Z,57.20
2023-02-11T12:09:02.414Z,57.30
2023-02-11T12:12:21.943Z,58.50
2023-02-11T12:15:37.083Z,57.70
2023-02-11T12:18:54.800Z,58.30
2023-02-11T12:22:12.375Z,59.30
2023-02-11T12:25:26.370Z,60.60
2023-02-11T12:28:37.795Z,60.80
2023-02-11T12:31:54.102Z,62.20
2023-02-11T12:35:11.845Z,62.70
2023-02-11T12:38:33.004Z,62.90
2023-02-11T12:42:11.410Z,62.70
2023-02-11T12:45:22.891Z,63.30
2023-02-11T12:48:44.621Z,63.60
2023-02-11T12:52:08.488Z,64.10
2023-02-11T12:55:27.335Z,63.90
2023-02-11T12:58:42.898Z,64.50
2023-02-11T13:01:45.196Z,64.40
2023-02-11T13:04:50.696Z,64.70
2023-02-11T13:07:50.807Z,65.70
2023-02-11T13:10:52.855Z,66.20
2023-02-11T13:14:11.627Z,66.00
2023-02-11T13:17:30.101Z,65.50
2023-02-11T13:20:44.947Z,66.40
2023-02-11T13:23:52.961Z,67.20
2023-02-11T13:27:05.982Z,66.50
2023-02-11T13:30:14.852Z,66.80
2023-02-11T13:33:33.791Z,67.00
2023-02-11T13:36:33.633Z,67.30
2023-02-11T13:39:31.390Z,67.70
2023-02-11T13:42:30.669Z,67.30
2023-02-11T13:45:34.417Z,68.10
2023-02-11T13:48:46.927Z,68.10
2023-02-11T13:51:44.763Z,67.40
2023-02-11T13:54:48.156Z,67.10
2023-02-11T13:57:45.516Z,66.30
2023-02-11T14:00:48.048Z,65.20
2023-02-11T14:04:22.234Z,64.30
2023-02-11T14:07:44.694Z,64.20
2023-02-11T14:10:52.384Z,62.70
2023-02-11T14:14:25.568Z,63.60
2023-02-11T14:17:31.422Z,63.40
2023-02-11T14:20:36.998Z,61.80
2023-02-11T14:23:34.759Z,61.80
2023-02-11T14:26:48.183Z,61.90
2023-02-11T14:30:09.477Z,61.30
2023-02-11T14:33:39.853Z,61.80
2023-02-11T14:36:52.323Z,62.30
2023-02-11T14:40:03.258Z,63.60
2023-02-11T14:43:14.033Z,65.40
2023-02-11T14:46:12.654Z,66.20
2023-02-11T14:49:22.087Z,66.40
2023-02-11T14:52:28.584Z,66.70
2023-02-11T14:55:33.583Z,67.60
2023-02-11T14:58:33.362Z,68.00
2023-02-11T15:01:35.580Z,67.80
2023-02-11T15:04:36.673Z,68.20
2023-02-11T15:07:34.931Z,68.70
2023-02-11T15:10:38.553Z,68.80
2023-02-11T15:13:36.479Z,69.10
2023-02-11T15:16:35.622Z,69.40
2023-02-11T15:19:45.548Z,69.70
2023-02-11T15:22:46.211Z,70.50
2023-02-11T15:25:46.724Z,70.20
2023-02-11T15:28:53.621Z,70.50
2023-02-11T15:32:07.349Z,70.60
2023-02-11T15:35:09.088Z,70.60
2023-02-11T15:38:07.131Z,70.40
2023-02-11T15:41:07.933Z,70.10
2023-02-11T15:44:05.655Z,70.20
2023-02-11T15:47:09.965Z,69.30
2023-02-11T15:50:08.472Z,68.70
2023-02-11T15:53:23.706Z,67.20
2023-02-11T15:56:31.230Z,67.20
2023-02-11T15:59:38.879Z,66.40
2023-02-11T16:02:53.671Z,66.90
2023-02-11T16:05:58.091Z,66.60
2023-02-11T16:09:22.835Z,66.30
2023-02-11T16:12:27.789Z,66.30
2023-02-11T16:15:45.960Z,67.10
2023-02-11T16:19:03.204Z,67.20
2023-02-11T16:22:08.814Z,67.50
2023-02-11T16:25:07.722Z,67.80
2023-02-11T16:28:07.189Z,67.40
2023-02-11T16:31:06.053Z,67.50
2023-02-11T16:34:06.317Z,67.20
2023-02-11T16:37:06.680Z,67.20
2023-02-11T16:40:04.388Z,67.10
2023-02-11T16:43:02.550Z,66.50
2023-02-11T16:46:00.462Z,66.60
2023-02-11T16:48:59.676Z,66.40
2023-02-11T16:52:02.244Z,66.70
2023-02-11T16:55:00.529Z,66.50
2023-02-11T16:57:58.698Z,67.20
2023-02-11T17:00:57.969Z,67.10
2023-02-11T17:03:55.655Z,66.60
2023-02-11T17:06:53.976Z,66.40
2023-02-11T17:09:52.646Z,67.40
2023-02-11T17:12:51.667Z,68.70
2023-02-11T17:15:49.858Z,68.90
2023-02-11T17:18:48.590Z,69.70
2023-02-11T17:21:47.504Z,68.70
2023-02-11T17:24:45.285Z,68.30
2023-02-11T17:27:43.301Z,68.10
2023-02-11T17:30:43.222Z,69.00
2023-02-11T17:33:41.086Z,69.50
2023-02-11T17:36:39.032Z,70.10
2023-02-11T17:39:38.405Z,68.90
2023-02-11T17:42:36.312Z,69.30
2023-02-11T17:45:34.695Z,69.50
2023-02-11T17:48:32.515Z,69.50
2023-02-11T17:51:33.287Z,70.40
2023-02-11T17:54:31.176Z,68.70
2023-02-11T17:57:28.869Z,68.80
2023-02-11T18:00:28.893Z,66.60
2023-02-11T18:03:26.822Z,65.70
2023-02-11T18:06:25.425Z,65.70
2023-02-11T18:09:23.226Z,65.40
2023-02-11T18:12:25.679Z,64.90
2023-02-11T18:15:23.910Z,64.10
2023-02-11T18:18:21.824Z,65.10
2023-02-11T18:21:21.295Z,63.80
2023-02-11T18:24:19.757Z,64.80
2023-02-11T18:27:17.472Z,64.60
2023-02-11T18:30:19.078Z,64.50
2023-02-11T18:33:16.804Z,65.40
2023-02-11T18:36:16.546Z,66.70
2023-02-11T18:39:14.243Z,65.80
2023-02-11T18:42:11.996Z,65.00
2023-02-11T18:45:12.953Z,64.20
2023-02-11T18:48:13.051Z,64.60
2023-02-11T18:51:15.328Z,64.30
2023-02-11T18:54:43.157Z,63.90
2023-02-11T18:57:40.952Z,63.60
2023-02-11T19:00:41.745Z,64.10
2023-02-11T19:03:39.533Z,63.40
2023-02-11T19:06:38.712Z,63.50
2023-02-11T19:09:36.941Z,64.40
2023-02-11T19:12:35.437Z,65.10
2023-02-11T19:15:33.256Z,65.10
2023-02-11T19:18:31.368Z,64.80
2023-02-11T19:21:29.760Z,64.00
2023-02-11T19:24:28.932Z,64.30
2023-02-11T19:27:26.617Z,64.30
2023-02-11T19:30:25.675Z,64.20
2023-02-11T19:33:23.367Z,64.40
2023-02-11T19:36:23.211Z,63.90
2023-02-11T19:39:21.416Z,62.90
2023-02-11T19:42:19.359Z,62.30
2023-02-11T19:45:17.054Z,61.70
2023-02-11T19:48:14.887Z,59.80
2023-02-11T19:51:13.403Z,60.10
2023-02-11T19:54:11.618Z,60.30
2023-02-11T19:57:09.294Z,60.90
2023-02-11T20:00:08.096Z,60.10
2023-02-11T20:03:07.212Z,56.10
2023-02-11T20:07:01.181Z,56.10
2023-02-11T20:09:59.521Z,55.00
2023-02-11T20:12:58.211Z,54.60
2023-02-11T20:15:56.981Z,54.80
2023-02-11T20:18:58.071Z,54.30
2023-02-11T20:21:56.181Z,54.60
2023-02-11T20:24:54.198Z,53.70
2023-02-11T20:27:51.909Z,52.90
2023-02-11T20:30:57.681Z,51.80
2023-02-11T20:33:56.869Z,51.10
2023-02-11T20:36:55.911Z,51.80
2023-02-11T20:39:53.774Z,52.30
2023-02-11T20:42:52.668Z,53.00
2023-02-11T20:45:50.813Z,52.90
2023-02-11T20:48:49.050Z,52.00
2023-02-11T20:51:46.890Z,50.40
2023-02-11T20:54:44.689Z,49.70
2023-02-11T20:57:50.137Z,49.10
2023-02-11T21:00:47.909Z,48.90
2023-02-11T21:03:55.801Z,48.50
2023-02-11T21:06:57.699Z,48.70
2023-02-11T21:09:55.423Z,48.50
2023-02-11T21:12:53.399Z,49.90
2023-02-11T21:15:56.371Z,51.30
2023-02-11T21:18:55.852Z,52.00
2023-02-11T21:21:55.573Z,51.50
2023-02-11T21:24:53.362Z,51.20
2023-02-11T21:27:51.206Z,50.40
2023-02-11T21:30:51.899Z,49.90
2023-02-11T21:33:50.404Z,49.00
2023-02-11T21:36:48.143Z,49.30
2023-02-11T21:39:45.809Z,49.00
2023-02-11T21:42:43.734Z,48.90
2023-02-11T21:45:46.285Z,49.70
2023-02-11T21:48:44.235Z,50.00
2023-02-11T21:51:42.098Z,49.60
2023-02-11T21:54:39.888Z,48.80
2023-02-11T21:57:37.529Z,49.10
2023-02-11T22:00:39.818Z,48.40
2023-02-11T22:03:40.247Z,48.30
2023-02-11T22:06:38.355Z,48.50
2023-02-11T22:09:38.295Z,49.10
2023-02-11T22:12:36.207Z,49.30
2023-02-11T22:15:34.191Z,49.10
2023-02-11T22:18:32.304Z,49.50
2023-02-11T22:21:30.694Z,49.80
2023-02-11T22:24:28.564Z,49.70
2023-02-11T22:27:29.478Z,49.20
2023-02-11T22:30:27.269Z,50.00
2023-02-11T22:33:26.102Z,49.80
2023-02-11T22:36:31.365Z,50.70
2023-02-11T22:39:30.073Z,50.40
2023-02-11T22:42:27.807Z,50.50
2023-02-11T22:45:25.703Z,50.50
2023-02-11T22:48:23.482Z,50.20
2023-02-11T22:51:25.100Z,50.10
2023-02-11T22:54:23.290Z,50.50
2023-02-11T22:57:20.933Z,50.40
2023-02-11T23:00:20.347Z,50.90
2023-02-11T23:03:18.128Z,51.40
2023-02-11T23:06:16.265Z,50.00
2023-02-11T23:09:14.390Z,49.70
2023-02-11T23:12:12.135Z,49.70
2023-02-11T23:15:09.889Z,49.40
2023-02-11T23:18:08.678Z,49.90
2023-02-11T23:21:12.501Z,49.90
2023-02-11T23:24:13.994Z,50.30
2023-02-11T23:27:11.674Z,50.60
2023-02-11T23:30:10.163Z,50.50
2023-02-11T23:33:07.867Z,50.10
2023-02-11T23:36:06.046Z,49.90
2023-02-11T23:39:04.136Z,49.60
2023-02-11T23:42:02.241Z,49.80
2023-02-11T23:44:59.866Z,50.40
2023-02-11T23:47:58.552Z,50.30
2023-02-11T23:50:56.504Z,50.20
2023-02-11T23:53:56.769Z,50.80
2023-02-11T23:56:54.428Z,50.90
2023-02-11T23:59:53.912Z,51.00
